sensor_id;sensor_type;location;lat;lon;timestamp;P1;durP1;ratioP1;P2;durP2;ratioP2
61739;SDS011;47645;45.288;12.038;2023-10-19T00:05:01;14.4;;;10.6;;
61739;SDS011;47645;45.288;12.038;2023-10-19T00:15:04;16.4;;;10.2;;
61739;SDS011;47645;45.288;12.038;2023-10-19T00:25:04;17.3;;;11.3;;
61739;SDS011;47645;45.288;12.038;2023-10-19T00:30:07;16.6;;;11.5;;
61739;SDS011;47645;45.288;12.038;2023-10-19T00:40:16;13.3;;;9.8;;
61739;SDS011;47645;45.288;12.038;2023-10-19T00:50:06;15.6;;;11.0;;
61739;SDS011;47645;45.288;12.038;2023-10-19T01:00:12;17.1;;;11.1;;
61739;SDS011;47645;45.288;12.038;2023-10-19T01:10:09;15.9;;;11.0;;
61739;SDS011;47645;45.288;12.038;2023-10-19T01:20:14;14.3;;;10.3;;
61739;SDS011;47645;45.288;12.038;2023-10-19T01:30:10;18.9;;;12.5;;
61739;SDS011;47645;45.288;12.038;2023-10-19T01:40:10;15.6;;;11.4;;
61739;SDS011;47645;45.288;12.038;2023-10-19T01:50:20;17.6;;;11.9;;
61739;SDS011;47645;45.288;12.038;2023-10-19T02:00:18;17.1;;;11.1;;
61739;SDS011;47645;45.288;12.038;2023-10-19T02:10:12;17.3;;;11.5;;
61739;SDS011;47645;45.288;12.038;2023-10-19T02:20:24;19.3;;;12.9;;
61739;SDS011;47645;45.288;12.038;2023-10-19T02:30:15;19.3;;;12.1;;
61739;SDS011;47645;45.288;12.038;2023-10-19T02:40:19;16.8;;;10.8;;
61739;SDS011;47645;45.288;12.038;2023-10-19T02:50:17;15.7;;;10.7;;
61739;SDS011;47645;45.288;12.038;2023-10-19T03:00:20;17.2;;;12.6;;
61739;SDS011;47645;45.288;12.038;2023-10-19T03:10:24;17.1;;;11.2;;
61739;SDS011;47645;45.288;12.038;2023-10-19T03:20:24;15.8;;;11.4;;
61739;SDS011;47645;45.288;12.038;2023-10-19T03:30:19;19.0;;;12.4;;
61739;SDS011;47645;45.288;12.038;2023-10-19T03:40:27;19.2;;;14.1;;
61739;SDS011;47645;45.288;12.038;2023-10-19T03:50:21;16.9;;;11.5;;
61739;SDS011;47645;45.288;12.038;2023-10-19T04:00:25;15.6;;;10.9;;
61739;SDS011;47645;45.288;12.038;2023-10-19T04:10:30;16.4;;;10.6;;
61739;SDS011;47645;45.288;12.038;2023-10-19T04:20:30;14.2;;;9.9;;
61739;SDS011;47645;45.288;12.038;2023-10-19T04:30:26;15.4;;;10.7;;
61739;SDS011;47645;45.288;12.038;2023-10-19T04:40:26;13.3;;;9.3;;
61739;SDS011;47645;45.288;12.038;2023-10-19T04:50:27;13.7;;;9.2;;
61739;SDS011;47645;45.288;12.038;2023-10-19T05:00:28;12.4;;;8.2;;
61739;SDS011;47645;45.288;12.038;2023-10-19T05:10:29;13.3;;;8.8;;
61739;SDS011;47645;45.288;12.038;2023-10-19T05:20:30;13.4;;;9.7;;
61739;SDS011;47645;45.288;12.038;2023-10-19T05:30:32;13.8;;;8.6;;
61739;SDS011;47645;45.288;12.038;2023-10-19T05:40:31;11.0;;;8.6;;
61739;SDS011;47645;45.288;12.038;2023-10-19T05:50:33;10.7;;;7.9;;
61739;SDS011;47645;45.288;12.038;2023-10-19T06:00:35;11.4;;;8.0;;
61739;SDS011;47645;45.288;12.038;2023-10-19T06:10:34;13.0;;;9.1;;
61739;SDS011;47645;45.288;12.038;2023-10-19T06:20:36;12.8;;;9.6;;
61739;SDS011;47645;45.288;12.038;2023-10-19T06:30:37;16.1;;;9.0;;
61739;SDS011;47645;45.288;12.038;2023-10-19T06:40:37;11.8;;;8.7;;
61739;SDS011;47645;45.288;12.038;2023-10-19T06:50:40;12.9;;;10.0;;
61739;SDS011;47645;45.288;12.038;2023-10-19T07:00:42;12.3;;;8.8;;
61739;SDS011;47645;45.288;12.038;2023-10-19T07:10:41;13.9;;;9.7;;
61739;SDS011;47645;45.288;12.038;2023-10-19T07:20:42;13.4;;;8.7;;
61739;SDS011;47645;45.288;12.038;2023-10-19T07:30:43;13.9;;;10.0;;
61739;SDS011;47645;45.288;12.038;2023-10-19T07:40:43;13.5;;;11.2;;
61739;SDS011;47645;45.288;12.038;2023-10-19T07:50:44;11.5;;;8.6;;
61739;SDS011;47645;45.288;12.038;2023-10-19T08:00:47;10.4;;;6.7;;
61739;SDS011;47645;45.288;12.038;2023-10-19T08:10:47;9.6;;;7.0;;
61739;SDS011;47645;45.288;12.038;2023-10-19T08:20:49;9.2;;;7.2;;
61739;SDS011;47645;45.288;12.038;2023-10-19T08:30:56;8.2;;;6.5;;
61739;SDS011;47645;45.288;12.038;2023-10-19T08:40:51;9.4;;;7.0;;
61739;SDS011;47645;45.288;12.038;2023-10-19T08:50:50;9.3;;;6.9;;
61739;SDS011;47645;45.288;12.038;2023-10-19T09:00:54;10.2;;;6.4;;
61739;SDS011;47645;45.288;12.038;2023-10-19T09:10:53;9.8;;;6.5;;
61739;SDS011;47645;45.288;12.038;2023-10-19T09:20:54;8.7;;;6.4;;
61739;SDS011;47645;45.288;12.038;2023-10-19T09:30:55;8.9;;;6.6;;
61739;SDS011;47645;45.288;12.038;2023-10-19T09:40:56;7.6;;;5.7;;
61739;SDS011;47645;45.288;12.038;2023-10-19T09:50:58;8.2;;;6.6;;
61739;SDS011;47645;45.288;12.038;2023-10-19T10:00:58;7.3;;;5.8;;
61739;SDS011;47645;45.288;12.038;2023-10-19T10:11:12;7.2;;;5.5;;
61739;SDS011;47645;45.288;12.038;2023-10-19T10:21:10;6.5;;;5.1;;
61739;SDS011;47645;45.288;12.038;2023-10-19T10:31:10;6.6;;;4.5;;
61739;SDS011;47645;45.288;12.038;2023-10-19T10:41:03;7.8;;;5.1;;
61739;SDS011;47645;45.288;12.038;2023-10-19T10:51:03;6.4;;;5.6;;
61739;SDS011;47645;45.288;12.038;2023-10-19T11:01:05;7.0;;;6.0;;
61739;SDS011;47645;45.288;12.038;2023-10-19T11:11:06;7.9;;;6.0;;
61739;SDS011;47645;45.288;12.038;2023-10-19T11:21:08;10.3;;;6.7;;
61739;SDS011;47645;45.288;12.038;2023-10-19T11:31:12;11.2;;;6.8;;
61739;SDS011;47645;45.288;12.038;2023-10-19T11:41:09;7.8;;;6.2;;
61739;SDS011;47645;45.288;12.038;2023-10-19T11:51:11;8.1;;;6.4;;
61739;SDS011;47645;45.288;12.038;2023-10-19T12:01:12;12.7;;;7.9;;
61739;SDS011;47645;45.288;12.038;2023-10-19T12:11:15;8.8;;;7.3;;
61739;SDS011;47645;45.288;12.038;2023-10-19T12:21:15;8.7;;;6.3;;
61739;SDS011;47645;45.288;12.038;2023-10-19T12:31:15;10.2;;;6.7;;
61739;SDS011;47645;45.288;12.038;2023-10-19T12:41:18;8.3;;;5.5;;
61739;SDS011;47645;45.288;12.038;2023-10-19T12:51:23;8.1;;;6.1;;
61739;SDS011;47645;45.288;12.038;2023-10-19T13:01:19;8.1;;;5.7;;
61739;SDS011;47645;45.288;12.038;2023-10-19T13:11:21;8.5;;;5.3;;
61739;SDS011;47645;45.288;12.038;2023-10-19T13:21:26;9.3;;;6.0;;
61739;SDS011;47645;45.288;12.038;2023-10-19T13:31:23;9.7;;;6.3;;
61739;SDS011;47645;45.288;12.038;2023-10-19T13:41:24;9.5;;;6.5;;
61739;SDS011;47645;45.288;12.038;2023-10-19T13:51:25;11.1;;;7.0;;
61739;SDS011;47645;45.288;12.038;2023-10-19T14:01:29;8.6;;;6.4;;
61739;SDS011;47645;45.288;12.038;2023-10-19T14:11:27;11.6;;;7.9;;
61739;SDS011;47645;45.288;12.038;2023-10-19T14:21:28;11.5;;;7.8;;
61739;SDS011;47645;45.288;12.038;2023-10-19T14:31:30;11.0;;;7.7;;
61739;SDS011;47645;45.288;12.038;2023-10-19T14:41:31;10.9;;;7.0;;
61739;SDS011;47645;45.288;12.038;2023-10-19T14:51:32;11.0;;;7.0;;
61739;SDS011;47645;45.288;12.038;2023-10-19T15:01:33;9.7;;;6.7;;
61739;SDS011;47645;45.288;12.038;2023-10-19T15:11:34;11.4;;;7.6;;
61739;SDS011;47645;45.288;12.038;2023-10-19T15:21:35;11.2;;;7.9;;
61739;SDS011;47645;45.288;12.038;2023-10-19T15:31:36;12.2;;;8.4;;
61739;SDS011;47645;45.288;12.038;2023-10-19T15:41:38;13.3;;;9.1;;
61739;SDS011;47645;45.288;12.038;2023-10-19T15:51:39;16.6;;;8.1;;
61739;SDS011;47645;45.288;12.038;2023-10-19T16:01:40;9.6;;;7.1;;
61739;SDS011;47645;45.288;12.038;2023-10-19T16:11:41;12.2;;;7.2;;
61739;SDS011;47645;45.288;12.038;2023-10-19T16:21:42;9.2;;;6.1;;
61739;SDS011;47645;45.288;12.038;2023-10-19T16:31:48;14.6;;;8.8;;
61739;SDS011;47645;45.288;12.038;2023-10-19T16:41:45;10.6;;;7.5;;
61739;SDS011;47645;45.288;12.038;2023-10-19T16:51:46;9.1;;;6.5;;
61739;SDS011;47645;45.288;12.038;2023-10-19T17:01:48;10.3;;;7.2;;
61739;SDS011;47645;45.288;12.038;2023-10-19T17:11:48;11.3;;;7.1;;
61739;SDS011;47645;45.288;12.038;2023-10-19T17:21:49;12.3;;;8.5;;
61739;SDS011;47645;45.288;12.038;2023-10-19T17:31:50;13.9;;;9.6;;
61739;SDS011;47645;45.288;12.038;2023-10-19T17:41:51;14.1;;;9.3;;
61739;SDS011;47645;45.288;12.038;2023-10-19T17:51:52;14.3;;;9.0;;
61739;SDS011;47645;45.288;12.038;2023-10-19T18:01:54;13.4;;;9.2;;
61739;SDS011;47645;45.288;12.038;2023-10-19T18:11:54;15.2;;;10.2;;
61739;SDS011;47645;45.288;12.038;2023-10-19T18:21:55;14.9;;;10.3;;
61739;SDS011;47645;45.288;12.038;2023-10-19T18:31:56;12.3;;;8.1;;
61739;SDS011;47645;45.288;12.038;2023-10-19T18:41:57;19.7;;;12.0;;
61739;SDS011;47645;45.288;12.038;2023-10-19T18:51:58;16.0;;;10.9;;
61739;SDS011;47645;45.288;12.038;2023-10-19T19:02:00;18.0;;;11.4;;
61739;SDS011;47645;45.288;12.038;2023-10-19T19:12:00;18.8;;;12.8;;
61739;SDS011;47645;45.288;12.038;2023-10-19T19:22:01;20.4;;;14.4;;
61739;SDS011;47645;45.288;12.038;2023-10-19T19:32:04;15.1;;;10.6;;
61739;SDS011;47645;45.288;12.038;2023-10-19T19:42:04;27.9;;;16.1;;
61739;SDS011;47645;45.288;12.038;2023-10-19T19:52:05;32.6;;;17.0;;
61739;SDS011;47645;45.288;12.038;2023-10-19T20:02:06;27.7;;;16.4;;
61739;SDS011;47645;45.288;12.038;2023-10-19T20:12:07;31.2;;;16.8;;
61739;SDS011;47645;45.288;12.038;2023-10-19T20:22:09;26.8;;;16.8;;
61739;SDS011;47645;45.288;12.038;2023-10-19T20:32:11;29.5;;;17.1;;
61739;SDS011;47645;45.288;12.038;2023-10-19T20:42:10;25.6;;;14.3;;
61739;SDS011;47645;45.288;12.038;2023-10-19T20:52:11;31.1;;;18.0;;
61739;SDS011;47645;45.288;12.038;2023-10-19T21:02:13;34.6;;;17.9;;
61739;SDS011;47645;45.288;12.038;2023-10-19T21:12:13;32.6;;;18.2;;
61739;SDS011;47645;45.288;12.038;2023-10-19T21:22:14;30.6;;;17.6;;
61739;SDS011;47645;45.288;12.038;2023-10-19T21:32:15;35.0;;;18.1;;
61739;SDS011;47645;45.288;12.038;2023-10-19T21:42:16;26.0;;;14.9;;
61739;SDS011;47645;45.288;12.038;2023-10-19T21:52:20;32.7;;;18.4;;
61739;SDS011;47645;45.288;12.038;2023-10-19T22:02:18;33.3;;;18.9;;
61739;SDS011;47645;45.288;12.038;2023-10-19T22:12:20;28.5;;;17.8;;
61739;SDS011;47645;45.288;12.038;2023-10-19T22:22:20;25.1;;;15.2;;
61739;SDS011;47645;45.288;12.038;2023-10-19T22:32:22;27.7;;;16.6;;
61739;SDS011;47645;45.288;12.038;2023-10-19T22:42:23;28.9;;;15.6;;
61739;SDS011;47645;45.288;12.038;2023-10-19T22:52:26;27.5;;;16.5;;
61739;SDS011;47645;45.288;12.038;2023-10-19T23:02:26;32.1;;;17.7;;
61739;SDS011;47645;45.288;12.038;2023-10-19T23:12:27;27.7;;;16.0;;
61739;SDS011;47645;45.288;12.038;2023-10-19T23:22:28;25.2;;;14.2;;
61739;SDS011;47645;45.288;12.038;2023-10-19T23:32:28;30.2;;;15.9;;
61739;SDS011;47645;45.288;12.038;2023-10-19T23:42:29;35.5;;;17.1;;
61739;SDS011;47645;45.288;12.038;2023-10-19T23:52:30;45.4;;;19.0;;
